sensor_id;sensor_type;location;lat;lon;timestamp;pressure;altitude;pressure_sealevel;temperature;humidity
62420;BME280;48460;51.616;5.426;2023-02-04T00:01:51;103128.00;;;6.35;100.00
62420;BME280;48460;51.616;5.426;2023-02-04T00:04:33;103126.28;;;6.34;100.00
62420;BME280;48460;51.616;5.426;2023-02-04T00:07:27;103122.78;;;6.32;100.00
62420;BME280;48460;51.616;5.426;2023-02-04T00:10:05;103115.78;;;6.27;100.00
62420;BME280;48460;51.616;5.426;2023-02-04T00:12:50;103130.63;;;6.28;100.00
62420;BME280;48460;51.616;5.426;2023-02-04T00:15:22;103128.00;;;6.22;100.00
62420;BME280;48460;51.616;5.426;2023-02-04T00:18:09;103129.72;;;6.23;100.00
62420;BME280;48460;51.616;5.426;2023-02-04T00:21:05;103142.81;;;6.29;100.00
62420;BME280;48460;51.616;5.426;2023-02-04T00:24:10;103141.06;;;6.28;100.00
62420;BME280;48460;51.616;5.426;2023-02-04T00:27:18;103141.06;;;6.26;100.00
62420;BME280;48460;51.616;5.426;2023-02-04T00:29:48;103148.03;;;6.29;100.00
62420;BME280;48460;51.616;5.426;2023-02-04T00:39:13;103143.66;;;6.22;100.00
62420;BME280;48460;51.616;5.426;2023-02-04T00:42:01;103158.47;;;6.26;100.00
62420;BME280;48460;51.616;5.426;2023-02-04T00:44:52;103152.38;;;6.22;100.00
62420;BME280;48460;51.616;5.426;2023-02-04T00:47:29;103148.88;;;6.20;100.00
62420;BME280;48460;51.616;5.426;2023-02-04T00:52:58;103147.13;;;6.13;100.00
62420;BME280;48460;51.616;5.426;2023-02-04T00:55:45;103140.13;;;6.04;100.00
62420;BME280;48460;51.616;5.426;2023-02-04T00:58:48;103159.28;;;6.05;100.00
62420;BME280;48460;51.616;5.426;2023-02-04T01:01:23;103158.38;;;6.01;100.00
62420;BME280;48460;51.616;5.426;2023-02-04T01:04:09;103160.03;;;5.91;100.00
62420;BME280;48460;51.616;5.426;2023-02-04T01:07:02;103159.16;;;5.83;100.00
62420;BME280;48460;51.616;5.426;2023-02-04T01:09:40;103166.13;;;5.90;100.00
62420;BME280;48460;51.616;5.426;2023-02-04T01:12:30;103168.69;;;5.86;100.00
62420;BME280;48460;51.616;5.426;2023-02-04T01:15:20;103166.94;;;5.79;100.00
62420;BME280;48460;51.616;5.426;2023-02-04T01:17:53;103158.22;;;5.72;100.00
62420;BME280;48460;51.616;5.426;2023-02-04T01:20:23;103161.66;;;5.69;100.00
62420;BME280;48460;51.616;5.426;2023-02-04T01:23:11;103166.00;;;5.66;100.00
62420;BME280;48460;51.616;5.426;2023-02-04T01:26:06;103165.13;;;5.62;100.00
62420;BME280;48460;51.616;5.426;2023-02-04T01:28:36;103165.91;;;5.51;100.00
62420;BME280;48460;51.616;5.426;2023-02-04T01:31:13;103170.22;;;5.45;100.00
62420;BME280;48460;51.616;5.426;2023-02-04T01:34:25;103176.28;;;5.43;100.00
62420;BME280;48460;51.616;5.426;2023-02-04T01:36:58;103179.72;;;5.37;100.00
62420;BME280;48460;51.616;5.426;2023-02-04T01:39:46;103197.16;;;5.41;100.00
62420;BME280;48460;51.616;5.426;2023-02-04T01:42:19;103195.38;;;5.33;100.00
62420;BME280;48460;51.616;5.426;2023-02-04T01:45:05;103196.19;;;5.29;100.00
62420;BME280;48460;51.616;5.426;2023-02-04T01:47:44;103192.69;;;5.25;100.00
62420;BME280;48460;51.616;5.426;2023-02-04T01:50:17;103194.41;;;5.21;100.00
62420;BME280;48460;51.616;5.426;2023-02-04T01:52:46;103205.69;;;5.19;100.00
62420;BME280;48460;51.616;5.426;2023-02-04T01:55:50;103210.88;;;5.16;100.00
62420;BME280;48460;51.616;5.426;2023-02-04T01:58:32;103210.84;;;5.13;100.00
62420;BME280;48460;51.616;5.426;2023-02-04T02:01:13;103215.19;;;5.12;100.00
62420;BME280;48460;51.616;5.426;2023-02-04T02:04:02;103204.78;;;5.15;100.00
62420;BME280;48460;51.616;5.426;2023-02-04T02:06:45;103217.81;;;5.15;100.00
62420;BME280;48460;51.616;5.426;2023-02-04T02:09:36;103218.69;;;5.17;100.00
62420;BME280;48460;51.616;5.426;2023-02-04T02:12:25;103223.03;;;5.15;100.00
62420;BME280;48460;51.616;5.426;2023-02-04T02:15:02;103225.63;;;5.12;100.00
62420;BME280;48460;51.616;5.426;2023-02-04T02:17:46;103229.94;;;5.09;100.00
62420;BME280;48460;51.616;5.426;2023-02-04T02:20:33;103226.44;;;5.08;100.00
62420;BME280;48460;51.616;5.426;2023-02-04T02:25:56;103221.13;;;4.97;100.00
62420;BME280;48460;51.616;5.426;2023-02-04T02:28:50;103224.59;;;4.99;100.00
62420;BME280;48460;51.616;5.426;2023-02-04T02:31:43;103233.31;;;4.98;100.00
62420;BME280;48460;51.616;5.426;2023-02-04T02:34:35;103228.94;;;4.94;100.00
62420;BME280;48460;51.616;5.426;2023-02-04T02:37:14;103228.09;;;4.97;100.00
62420;BME280;48460;51.616;5.426;2023-02-04T02:40:17;103216.72;;;4.92;100.00
62420;BME280;48460;51.616;5.426;2023-02-04T02:42:51;103217.59;;;4.91;100.00
62420;BME280;48460;51.616;5.426;2023-02-04T02:45:27;103226.31;;;4.94;100.00
62420;BME280;48460;51.616;5.426;2023-02-04T02:48:14;103224.53;;;4.90;100.00
62420;BME280;48460;51.616;5.426;2023-02-04T02:50:46;103223.63;;;4.87;100.00
62420;BME280;48460;51.616;5.426;2023-02-04T02:53:30;103234.16;;;4.94;100.00
62420;BME280;48460;51.616;5.426;2023-02-04T02:55:58;103233.19;;;4.88;100.00
62420;BME280;48460;51.616;5.426;2023-02-04T02:58:33;103238.38;;;4.83;100.00
62420;BME280;48460;51.616;5.426;2023-02-04T03:01:20;103235.72;;;4.80;100.00
62420;BME280;48460;51.616;5.426;2023-02-04T03:04:14;103240.06;;;4.81;100.00
62420;BME280;48460;51.616;5.426;2023-02-04T03:06:47;103242.69;;;4.81;100.00
62420;BME280;48460;51.616;5.426;2023-02-04T03:09:16;103234.75;;;4.72;100.00
62420;BME280;48460;51.616;5.426;2023-02-04T03:11:54;103240.78;;;4.65;100.00
62420;BME280;48460;51.616;5.426;2023-02-04T03:14:42;103238.00;;;4.49;100.00
62420;BME280;48460;51.616;5.426;2023-02-04T03:17:23;103245.84;;;4.52;100.00
62420;BME280;48460;51.616;5.426;2023-02-04T03:20:08;103239.66;;;4.46;100.00
62420;BME280;48460;51.616;5.426;2023-02-04T03:22:45;103259.69;;;4.48;100.00
62420;BME280;48460;51.616;5.426;2023-02-04T03:25:16;103244.00;;;4.45;100.00
62420;BME280;48460;51.616;5.426;2023-02-04T03:28:07;103249.22;;;4.45;100.00
62420;BME280;48460;51.616;5.426;2023-02-04T03:30:44;103252.69;;;4.46;100.00
62420;BME280;48460;51.616;5.426;2023-02-04T03:33:22;103257.09;;;4.51;100.00
62420;BME280;48460;51.616;5.426;2023-02-04T03:36:03;103257.06;;;4.48;100.00
62420;BME280;48460;51.616;5.426;2023-02-04T03:38:30;103257.94;;;4.47;100.00
62420;BME280;48460;51.616;5.426;2023-02-04T03:41:02;103269.28;;;4.51;100.00
62420;BME280;48460;51.616;5.426;2023-02-04T03:43:36;103267.53;;;4.51;100.00
62420;BME280;48460;51.616;5.426;2023-02-04T03:46:07;103264.97;;;4.53;100.00
62420;BME280;48460;51.616;5.426;2023-02-04T03:48:36;103265.75;;;4.49;100.00
62420;BME280;48460;51.616;5.426;2023-02-04T03:51:22;103270.19;;;4.54;100.00
62420;BME280;48460;51.616;5.426;2023-02-04T03:53:51;103271.88;;;4.51;100.00
62420;BME280;48460;51.616;5.426;2023-02-04T03:56:31;103268.41;;;4.52;100.00
62420;BME280;48460;51.616;5.426;2023-02-04T03:58:58;103257.06;;;4.47;100.00
62420;BME280;48460;51.616;5.426;2023-02-04T04:01:55;103267.50;;;4.48;100.00
62420;BME280;48460;51.616;5.426;2023-02-04T04:32:27;103272.94;;;4.01;100.00
62420;BME280;48460;51.616;5.426;2023-02-04T04:39:58;103277.00;;;3.81;100.00
62420;BME280;48460;51.616;5.426;2023-02-04T04:43:10;103279.47;;;3.75;100.00
62420;BME280;48460;51.616;5.426;2023-02-04T04:46:39;103284.63;;;3.72;100.00
62420;BME280;48460;51.616;5.426;2023-02-04T04:49:48;103305.41;;;3.67;100.00
62420;BME280;48460;51.616;5.426;2023-02-04T04:53:23;103293.16;;;3.61;100.00
62420;BME280;48460;51.616;5.426;2023-02-04T04:57:04;103305.34;;;3.65;100.00
62420;BME280;48460;51.616;5.426;2023-02-04T05:00:39;103298.44;;;3.66;100.00
62420;BME280;48460;51.616;5.426;2023-02-04T05:03:31;103287.22;;;3.70;100.00
62420;BME280;48460;51.616;5.426;2023-02-04T05:06:00;103302.97;;;3.78;100.00
62420;BME280;48460;51.616;5.426;2023-02-04T05:08:47;103289.94;;;3.76;100.00
62420;BME280;48460;51.616;5.426;2023-02-04T05:11:14;103310.88;;;3.84;100.00
62420;BME280;48460;51.616;5.426;2023-02-04T05:13:50;103300.34;;;3.76;100.00
62420;BME280;48460;51.616;5.426;2023-02-04T05:16:25;103316.00;;;3.78;100.00
62420;BME280;48460;51.616;5.426;2023-02-04T05:20:08;103327.19;;;3.74;100.00
62420;BME280;48460;51.616;5.426;2023-02-04T05:23:51;103321.81;;;3.64;100.00
62420;BME280;48460;51.616;5.426;2023-02-04T05:27:06;103332.34;;;3.71;100.00
62420;BME280;48460;51.616;5.426;2023-02-04T05:49:40;103320.84;;;4.11;100.00
62420;BME280;48460;51.616;5.426;2023-02-04T05:53:09;103328.75;;;4.17;100.00
62420;BME280;48460;51.616;5.426;2023-02-04T05:56:25;103322.63;;;4.14;100.00
62420;BME280;48460;51.616;5.426;2023-02-04T06:03:28;103328.78;;;4.20;100.00
62420;BME280;48460;51.616;5.426;2023-02-04T06:06:02;103340.16;;;4.25;100.00
62420;BME280;48460;51.616;5.426;2023-02-04T06:11:30;103343.63;;;4.26;100.00
62420;BME280;48460;51.616;5.426;2023-02-04T06:14:35;103356.75;;;4.33;100.00
62420;BME280;48460;51.616;5.426;2023-02-04T06:17:24;103354.19;;;4.35;100.00
62420;BME280;48460;51.616;5.426;2023-02-04T06:23:15;103359.47;;;4.43;100.00
62420;BME280;48460;51.616;5.426;2023-02-04T06:26:05;103368.25;;;4.46;100.00
62420;BME280;48460;51.616;5.426;2023-02-04T06:28:40;103366.50;;;4.47;100.00
62420;BME280;48460;51.616;5.426;2023-02-04T06:34:48;103376.97;;;4.51;100.00
62420;BME280;48460;51.616;5.426;2023-02-04T06:37:19;103379.53;;;4.47;100.00
62420;BME280;48460;51.616;5.426;2023-02-04T06:43:22;103394.31;;;4.48;100.00
62420;BME280;48460;51.616;5.426;2023-02-04T06:46:08;103385.56;;;4.44;100.00
62420;BME280;48460;51.616;5.426;2023-02-04T06:48:40;103388.25;;;4.50;100.00
62420;BME280;48460;51.616;5.426;2023-02-04T06:51:33;103389.09;;;4.48;100.00
62420;BME280;48460;51.616;5.426;2023-02-04T06:57:48;103389.16;;;4.52;100.00
62420;BME280;48460;51.616;5.426;2023-02-04T07:00:54;103402.28;;;4.59;100.00
62420;BME280;48460;51.616;5.426;2023-02-04T07:06:33;103397.03;;;4.55;100.00
62420;BME280;48460;51.616;5.426;2023-02-04T07:09:36;103399.69;;;4.60;100.00
62420;BME280;48460;51.616;5.426;2023-02-04T07:15:13;103408.31;;;4.56;100.00
62420;BME280;48460;51.616;5.426;2023-02-04T07:18:24;103408.31;;;4.57;100.00
62420;BME280;48460;51.616;5.426;2023-02-04T07:21:24;103405.75;;;4.59;100.00
62420;BME280;48460;51.616;5.426;2023-02-04T07:24:10;103408.38;;;4.61;100.00
62420;BME280;48460;51.616;5.426;2023-02-04T07:27:06;103417.09;;;4.61;100.00
62420;BME280;48460;51.616;5.426;2023-02-04T07:29:44;103412.72;;;4.60;100.00
62420;BME280;48460;51.616;5.426;2023-02-04T07:32:49;103411.88;;;4.63;100.00
62420;BME280;48460;51.616;5.426;2023-02-04T07:35:56;103410.19;;;4.65;100.00
62420;BME280;48460;51.616;5.426;2023-02-04T07:39:00;103425.00;;;4.67;100.00
62420;BME280;48460;51.616;5.426;2023-02-04T08:00:03;103459.22;;;4.93;100.00
62420;BME280;48460;51.616;5.426;2023-02-04T08:02:36;103458.31;;;4.90;100.00
62420;BME280;48460;51.616;5.426;2023-02-04T08:05:37;103466.25;;;4.99;100.00
62420;BME280;48460;51.616;5.426;2023-02-04T08:22:41;103470.31;;;5.44;100.00
62420;BME280;48460;51.616;5.426;2023-02-04T08:25:42;103476.38;;;5.43;100.00
62420;BME280;48460;51.616;5.426;2023-02-04T08:28:41;103467.69;;;5.42;100.00
62420;BME280;48460;51.616;5.426;2023-02-04T08:55:44;103504.72;;;5.88;100.00
62420;BME280;48460;51.616;5.426;2023-02-04T09:03:06;103501.44;;;6.03;100.00
62420;BME280;48460;51.616;5.426;2023-02-04T09:06:32;103518.16;;;6.19;100.00
62420;BME280;48460;51.616;5.426;2023-02-04T09:13:34;103508.75;;;6.41;100.00
62420;BME280;48460;51.616;5.426;2023-02-04T09:22:32;103526.47;;;6.77;100.00
62420;BME280;48460;51.616;5.426;2023-02-04T09:25:01;103516.91;;;6.84;100.00
62420;BME280;48460;51.616;5.426;2023-02-04T09:30:23;103533.63;;;7.03;100.00
62420;BME280;48460;51.616;5.426;2023-02-04T09:40:20;103538.91;;;7.17;100.00
62420;BME280;48460;51.616;5.426;2023-02-04T09:42:51;103536.34;;;7.20;100.00
62420;BME280;48460;51.616;5.426;2023-02-04T09:45:51;103536.38;;;7.30;100.00
62420;BME280;48460;51.616;5.426;2023-02-04T09:49:03;103540.75;;;7.33;100.00
62420;BME280;48460;51.616;5.426;2023-02-04T09:52:02;103535.50;;;7.35;100.00
62420;BME280;48460;51.616;5.426;2023-02-04T09:55:17;103538.22;;;7.47;100.00
62420;BME280;48460;51.616;5.426;2023-02-04T10:05:30;103545.34;;;7.95;100.00
62420;BME280;48460;51.616;5.426;2023-02-04T10:09:09;103548.03;;;8.06;100.00
62420;BME280;48460;51.616;5.426;2023-02-04T10:15:55;103547.22;;;8.70;100.00
62420;BME280;48460;51.616;5.426;2023-02-04T10:19:14;103546.31;;;8.88;100.00
62420;BME280;48460;51.616;5.426;2023-02-04T10:25:57;103557.66;;;9.02;100.00
62420;BME280;48460;51.616;5.426;2023-02-04T10:28:36;103562.06;;;8.99;100.00
62420;BME280;48460;51.616;5.426;2023-02-04T10:36:43;103556.75;;;9.23;100.00
62420;BME280;48460;51.616;5.426;2023-02-04T10:41:36;103557.56;;;9.44;100.00
62420;BME280;48460;51.616;5.426;2023-02-04T10:44:12;103567.88;;;9.88;100.00
62420;BME280;48460;51.616;5.426;2023-02-04T10:46:46;103568.56;;;10.27;100.00
62420;BME280;48460;51.616;5.426;2023-02-04T10:49:29;103569.38;;;10.35;100.00
62420;BME280;48460;51.616;5.426;2023-02-04T10:52:05;103564.09;;;10.38;100.00
62420;BME280;48460;51.616;5.426;2023-02-04T10:55:29;103563.25;;;10.33;100.00
62420;BME280;48460;51.616;5.426;2023-02-04T10:57:59;103563.25;;;10.33;100.00
62420;BME280;48460;51.616;5.426;2023-02-04T11:00:47;103558.00;;;10.29;100.00
62420;BME280;48460;51.616;5.426;2023-02-04T11:03:21;103565.91;;;10.24;100.00
62420;BME280;48460;51.616;5.426;2023-02-04T11:05:49;103566.09;;;9.92;100.00
62420;BME280;48460;51.616;5.426;2023-02-04T11:08:33;103558.25;;;9.82;100.00
62420;BME280;48460;51.616;5.426;2023-02-04T11:11:05;103565.44;;;10.82;100.00
62420;BME280;48460;51.616;5.426;2023-02-04T11:13:43;103560.72;;;11.20;100.00
62420;BME280;48460;51.616;5.426;2023-02-04T11:16:29;103568.59;;;11.18;100.00
62420;BME280;48460;51.616;5.426;2023-02-04T11:19:11;103550.09;;;11.26;100.00
62420;BME280;48460;51.616;5.426;2023-02-04T11:22:03;103559.34;;;11.59;100.00
62420;BME280;48460;51.616;5.426;2023-02-04T11:24:35;103552.44;;;11.52;98.84
62420;BME280;48460;51.616;5.426;2023-02-04T11:27:06;103559.41;;;11.56;100.00
62420;BME280;48460;51.616;5.426;2023-02-04T11:30:03;103561.28;;;11.45;98.90
62420;BME280;48460;51.616;5.426;2023-02-04T11:33:22;103561.13;;;10.78;100.00
62420;BME280;48460;51.616;5.426;2023-02-04T11:36:09;103552.31;;;10.79;100.00
62420;BME280;48460;51.616;5.426;2023-02-04T11:38:48;103557.53;;;10.87;100.00
62420;BME280;48460;51.616;5.426;2023-02-04T11:41:25;103553.28;;;10.72;98.20
62420;BME280;48460;51.616;5.426;2023-02-04T11:44:32;103549.03;;;10.57;100.00
62420;BME280;48460;51.616;5.426;2023-02-04T11:47:05;103539.53;;;10.36;100.00
62420;BME280;48460;51.616;5.426;2023-02-04T11:50:10;103540.38;;;10.44;100.00
62420;BME280;48460;51.616;5.426;2023-02-04T11:53:30;103544.81;;;10.32;100.00
62420;BME280;48460;51.616;5.426;2023-02-04T11:56:18;103547.47;;;10.33;100.00
62420;BME280;48460;51.616;5.426;2023-02-04T11:58:57;103555.22;;;10.48;100.00
62420;BME280;48460;51.616;5.426;2023-02-04T12:01:33;103542.88;;;10.55;100.00
62420;BME280;48460;51.616;5.426;2023-02-04T12:04:06;103541.09;;;10.59;99.54
62420;BME280;48460;51.616;5.426;2023-02-04T12:07:00;103538.34;;;10.74;100.00
62420;BME280;48460;51.616;5.426;2023-02-04T12:09:52;103548.47;;;11.14;100.00
62420;BME280;48460;51.616;5.426;2023-02-04T12:13:15;103547.69;;;12.39;96.85
62420;BME280;48460;51.616;5.426;2023-02-04T12:16:05;103544.75;;;13.07;88.33
62420;BME280;48460;51.616;5.426;2023-02-04T12:18:56;103550.03;;;13.52;91.04
62420;BME280;48460;51.616;5.426;2023-02-04T12:29:19;103557.28;;;14.93;73.80
62420;BME280;48460;51.616;5.426;2023-02-04T12:32:09;103548.34;;;14.64;80.19
62420;BME280;48460;51.616;5.426;2023-02-04T12:39:30;103554.78;;;14.17;83.53
62420;BME280;48460;51.616;5.426;2023-02-04T12:43:12;103556.31;;;13.88;83.86
62420;BME280;48460;51.616;5.426;2023-02-04T12:46:15;103560.28;;;13.67;83.87
62420;BME280;48460;51.616;5.426;2023-02-04T12:49:30;103562.00;;;13.70;81.41
62420;BME280;48460;51.616;5.426;2023-02-04T12:55:58;103561.88;;;14.14;79.92
62420;BME280;48460;51.616;5.426;2023-02-04T13:02:39;103556.91;;;15.70;74.44
62420;BME280;48460;51.616;5.426;2023-02-04T13:08:48;103556.38;;;15.26;69.01
62420;BME280;48460;51.616;5.426;2023-02-04T13:11:35;103560.25;;;15.15;72.52
62420;BME280;48460;51.616;5.426;2023-02-04T13:14:19;103558.16;;;15.26;73.02
62420;BME280;48460;51.616;5.426;2023-02-04T13:20:49;103548.88;;;13.65;74.37
62420;BME280;48460;51.616;5.426;2023-02-04T13:24:12;103555.44;;;13.00;80.25
62420;BME280;48460;51.616;5.426;2023-02-04T13:27:20;103550.56;;;12.77;82.84
62420;BME280;48460;51.616;5.426;2023-02-04T13:30:00;103539.41;;;12.60;80.77
62420;BME280;48460;51.616;5.426;2023-02-04T13:32:35;103537.94;;;12.93;80.31
62420;BME280;48460;51.616;5.426;2023-02-04T13:35:23;103536.50;;;13.67;76.26
62420;BME280;48460;51.616;5.426;2023-02-04T13:37:49;103528.94;;;13.89;75.93
62420;BME280;48460;51.616;5.426;2023-02-04T13:40:39;103528.13;;;13.87;77.88
62420;BME280;48460;51.616;5.426;2023-02-04T13:43:16;103523.63;;;13.50;73.44
62420;BME280;48460;51.616;5.426;2023-02-04T13:46:06;103527.56;;;13.31;75.20
62420;BME280;48460;51.616;5.426;2023-02-04T13:48:40;103528.28;;;12.91;71.95
62420;BME280;48460;51.616;5.426;2023-02-04T13:51:21;103530.28;;;12.80;74.38
62420;BME280;48460;51.616;5.426;2023-02-04T13:54:18;103533.00;;;12.75;77.77
62420;BME280;48460;51.616;5.426;2023-02-04T13:57:03;103527.34;;;12.47;77.46
62420;BME280;48460;51.616;5.426;2023-02-04T14:00:17;103527.81;;;12.16;78.64
62420;BME280;48460;51.616;5.426;2023-02-04T14:03:05;103519.50;;;11.82;78.83
62420;BME280;48460;51.616;5.426;2023-02-04T14:06:19;103528.41;;;11.73;82.56
62420;BME280;48460;51.616;5.426;2023-02-04T14:09:07;103521.53;;;11.63;80.20
62420;BME280;48460;51.616;5.426;2023-02-04T14:11:42;103526.81;;;11.61;79.74
62420;BME280;48460;51.616;5.426;2023-02-04T14:14:24;103527.59;;;11.68;79.52
62420;BME280;48460;51.616;5.426;2023-02-04T14:17:28;103524.00;;;11.75;79.36
62420;BME280;48460;51.616;5.426;2023-02-04T14:20:23;103520.28;;;11.92;78.75
62420;BME280;48460;51.616;5.426;2023-02-04T14:23:17;103526.38;;;11.97;80.70
62420;BME280;48460;51.616;5.426;2023-02-04T14:26:19;103520.09;;;12.04;80.41
62420;BME280;48460;51.616;5.426;2023-02-04T14:29:39;103530.59;;;12.08;76.98
62420;BME280;48460;51.616;5.426;2023-02-04T14:32:37;103531.59;;;11.98;79.67
62420;BME280;48460;51.616;5.426;2023-02-04T14:35:15;103530.72;;;11.98;80.41
62420;BME280;48460;51.616;5.426;2023-02-04T14:37:44;103524.72;;;11.88;79.23
62420;BME280;48460;51.616;5.426;2023-02-04T14:40:16;103523.00;;;11.82;76.34
62420;BME280;48460;51.616;5.426;2023-02-04T14:42:47;103521.41;;;11.71;77.16
62420;BME280;48460;51.616;5.426;2023-02-04T14:45:19;103515.59;;;11.47;79.09
62420;BME280;48460;51.616;5.426;2023-02-04T14:47:48;103523.44;;;11.50;81.53
62420;BME280;48460;51.616;5.426;2023-02-04T14:50:23;103520.03;;;11.44;79.22
62420;BME280;48460;51.616;5.426;2023-02-04T14:53:05;103515.63;;;11.44;83.18
62420;BME280;48460;51.616;5.426;2023-02-04T14:55:41;103517.59;;;11.28;79.65
62420;BME280;48460;51.616;5.426;2023-02-04T14:58:13;103528.19;;;11.21;82.30
62420;BME280;48460;51.616;5.426;2023-02-04T15:01:25;103518.59;;;11.15;84.12
62420;BME280;48460;51.616;5.426;2023-02-04T15:03:57;103532.91;;;10.91;77.46
62420;BME280;48460;51.616;5.426;2023-02-04T15:06:44;103531.22;;;10.82;79.01
62420;BME280;48460;51.616;5.426;2023-02-04T15:09:21;103534.81;;;10.75;81.65
62420;BME280;48460;51.616;5.426;2023-02-04T15:12:10;103535.72;;;10.74;82.46
62420;BME280;48460;51.616;5.426;2023-02-04T15:14:46;103528.91;;;10.53;81.29
62420;BME280;48460;51.616;5.426;2023-02-04T15:17:39;103540.25;;;10.55;85.86
62420;BME280;48460;51.616;5.426;2023-02-04T15:20:16;103539.38;;;10.59;88.12
62420;BME280;48460;51.616;5.426;2023-02-04T15:23:27;103533.19;;;10.63;85.89
62420;BME280;48460;51.616;5.426;2023-02-04T15:29:20;103540.19;;;10.61;84.89
62420;BME280;48460;51.616;5.426;2023-02-04T15:31:49;103543.88;;;10.45;82.77
62420;BME280;48460;51.616;5.426;2023-02-04T15:34:45;103545.69;;;10.37;85.34
62420;BME280;48460;51.616;5.426;2023-02-04T15:37:47;103544.78;;;10.39;89.75
62420;BME280;48460;51.616;5.426;2023-02-04T15:40:43;103551.81;;;10.37;89.37
62420;BME280;48460;51.616;5.426;2023-02-04T15:43:35;103546.59;;;10.25;89.71
62420;BME280;48460;51.616;5.426;2023-02-04T15:46:42;103560.66;;;10.22;90.90
62420;BME280;48460;51.616;5.426;2023-02-04T15:49:33;103549.34;;;10.08;90.49
62420;BME280;48460;51.616;5.426;2023-02-04T15:52:54;103552.91;;;10.01;91.73
62420;BME280;48460;51.616;5.426;2023-02-04T15:56:14;103550.28;;;9.96;92.82
62420;BME280;48460;51.616;5.426;2023-02-04T15:58:50;103543.38;;;9.81;92.37
62420;BME280;48460;51.616;5.426;2023-02-04T16:01:42;103546.91;;;9.74;93.08
62420;BME280;48460;51.616;5.426;2023-02-04T16:04:13;103549.56;;;9.71;95.13
62420;BME280;48460;51.616;5.426;2023-02-04T16:07:13;103543.44;;;9.68;95.14
62420;BME280;48460;51.616;5.426;2023-02-04T16:10:27;103543.41;;;9.74;95.08
62420;BME280;48460;51.616;5.426;2023-02-04T16:13:21;103547.84;;;9.63;94.98
62420;BME280;48460;51.616;5.426;2023-02-04T16:15:58;103556.59;;;9.60;94.87
62420;BME280;48460;51.616;5.426;2023-02-04T16:18:32;103547.00;;;9.56;95.04
62420;BME280;48460;51.616;5.426;2023-02-04T16:21:25;103549.63;;;9.51;97.50
62420;BME280;48460;51.616;5.426;2023-02-04T16:23:56;103555.78;;;9.55;97.18
62420;BME280;48460;51.616;5.426;2023-02-04T16:26:44;103561.00;;;9.58;96.84
62420;BME280;48460;51.616;5.426;2023-02-04T16:29:34;103564.50;;;9.62;97.69
62420;BME280;48460;51.616;5.426;2023-02-04T16:32:38;103560.09;;;9.64;97.00
62420;BME280;48460;51.616;5.426;2023-02-04T16:35:30;103567.09;;;9.66;97.64
62420;BME280;48460;51.616;5.426;2023-02-04T16:38:17;103569.75;;;9.65;96.57
62420;BME280;48460;51.616;5.426;2023-02-04T16:41:38;103572.38;;;9.62;96.45
62420;BME280;48460;51.616;5.426;2023-02-04T16:44:20;103572.41;;;9.54;95.80
62420;BME280;48460;51.616;5.426;2023-02-04T16:50:16;103586.44;;;9.50;97.11
62420;BME280;48460;51.616;5.426;2023-02-04T16:53:16;103582.03;;;9.46;99.13
62420;BME280;48460;51.616;5.426;2023-02-04T16:56:49;103588.19;;;9.46;99.19
62420;BME280;48460;51.616;5.426;2023-02-04T17:00:06;103585.59;;;9.40;97.95
62420;BME280;48460;51.616;5.426;2023-02-04T17:03:06;103583.84;;;9.38;100.00
62420;BME280;48460;51.616;5.426;2023-02-04T17:06:13;103596.13;;;9.37;99.98
62420;BME280;48460;51.616;5.426;2023-02-04T17:09:04;103594.34;;;9.41;98.96
62420;BME280;48460;51.616;5.426;2023-02-04T17:11:53;103587.34;;;9.35;100.00
62420;BME280;48460;51.616;5.426;2023-02-04T17:14:47;103596.09;;;9.31;98.91
62420;BME280;48460;51.616;5.426;2023-02-04T17:18:02;103589.09;;;9.30;99.86
62420;BME280;48460;51.616;5.426;2023-02-04T17:20:48;103593.47;;;9.28;99.49
62420;BME280;48460;51.616;5.426;2023-02-04T17:23:33;103598.72;;;9.28;99.20
62420;BME280;48460;51.616;5.426;2023-02-04T17:26:53;103597.00;;;9.18;98.71
62420;BME280;48460;51.616;5.426;2023-02-04T17:29:35;103604.03;;;9.02;99.79
62420;BME280;48460;51.616;5.426;2023-02-04T17:32:15;103601.41;;;8.91;100.00
62420;BME280;48460;51.616;5.426;2023-02-04T17:34:54;103612.81;;;8.81;100.00
62420;BME280;48460;51.616;5.426;2023-02-04T17:37:39;103618.94;;;8.66;100.00
62420;BME280;48460;51.616;5.426;2023-02-04T17:47:41;103595.19;;;8.06;100.00
62420;BME280;48460;51.616;5.426;2023-02-04T17:50:57;103609.13;;;7.99;100.00
62420;BME280;48460;51.616;5.426;2023-02-04T17:54:08;103611.75;;;7.91;100.00
62420;BME280;48460;51.616;5.426;2023-02-04T17:57:01;103621.34;;;7.97;100.00
62420;BME280;48460;51.616;5.426;2023-02-04T18:00:16;103607.38;;;7.95;100.00
62420;BME280;48460;51.616;5.426;2023-02-04T18:03:12;103618.78;;;8.03;100.00
62420;BME280;48460;51.616;5.426;2023-02-04T18:06:48;103611.78;;;8.08;100.00
62420;BME280;48460;51.616;5.426;2023-02-04T18:09:49;103608.31;;;8.09;100.00
62420;BME280;48460;51.616;5.426;2023-02-04T18:16:35;103627.53;;;8.13;100.00
62420;BME280;48460;51.616;5.426;2023-02-04T18:19:41;103624.88;;;8.07;100.00
62420;BME280;48460;51.616;5.426;2023-02-04T18:22:18;103628.34;;;8.01;100.00
62420;BME280;48460;51.616;5.426;2023-02-04T18:25:22;103619.59;;;7.99;100.00
62420;BME280;48460;51.616;5.426;2023-02-04T18:28:01;103616.06;;;7.91;100.00
62420;BME280;48460;51.616;5.426;2023-02-04T18:30:41;103623.06;;;7.93;100.00
62420;BME280;48460;51.616;5.426;2023-02-04T18:34:14;103622.19;;;7.90;100.00
62420;BME280;48460;51.616;5.426;2023-02-04T18:37:41;103626.56;;;7.91;100.00
62420;BME280;48460;51.616;5.426;2023-02-04T18:40:41;103623.06;;;7.89;100.00
62420;BME280;48460;51.616;5.426;2023-02-04T18:43:50;103626.56;;;7.92;100.00
62420;BME280;48460;51.616;5.426;2023-02-04T18:50:59;103636.19;;;7.92;100.00
62420;BME280;48460;51.616;5.426;2023-02-04T18:53:54;103637.06;;;7.92;100.00